createdAt,value
2018-02-27T00:00:05.304Z,65.66
2018-02-27T00:01:12.698Z,65.58
2018-02-27T00:02:18.837Z,65.28
2018-02-27T00:03:25.032Z,65.71
2018-02-27T00:04:31.166Z,65.79
2018-02-27T00:05:37.281Z,65.71
2018-02-27T00:06:44.370Z,65.70
2018-02-27T00:07:50.521Z,65.77
2018-02-27T00:08:56.661Z,65.89
2018-02-27T00:10:02.827Z,66.55
2018-02-27T00:11:09.007Z,66.92
2018-02-27T00:12:14.784Z,66.83
2018-02-27T00:13:20.895Z,66.39
2018-02-27T00:14:27.057Z,66.37
2018-02-27T00:15:33.251Z,66.07
2018-02-27T00:16:39.240Z,66.16
2018-02-27T00:17:45.373Z,66.01
2018-02-27T00:18:51.504Z,65.86
2018-02-27T00:19:57.619Z,66.01
2018-02-27T00:21:03.793Z,65.59
2018-02-27T00:22:09.241Z,65.63
2018-02-27T00:23:14.908Z,65.69
2018-02-27T00:24:21.056Z,65.79
2018-02-27T00:25:27.234Z,66.18
2018-02-27T00:26:33.394Z,65.95
2018-02-27T00:27:39.546Z,66.24
2018-02-27T00:28:45.711Z,66.40
2018-02-27T00:29:51.649Z,66.31
2018-02-27T00:30:58.467Z,66.48
2018-02-27T00:32:04.650Z,66.43
2018-02-27T00:33:10.786Z,66.21
2018-02-27T00:34:16.923Z,66.05
2018-02-27T00:35:23.031Z,65.82
2018-02-27T00:36:29.145Z,66.09
2018-02-27T00:37:35.317Z,66.44
2018-02-27T00:38:41.455Z,66.65
2018-02-27T00:39:47.813Z,66.75
2018-02-27T00:40:54.008Z,67.06
2018-02-27T00:42:00.131Z,66.97
2018-02-27T00:43:06.316Z,67.15
2018-02-27T00:44:12.248Z,67.16
2018-02-27T00:45:18.387Z,67.28
2018-02-27T00:46:24.507Z,67.48
2018-02-27T00:47:30.621Z,67.16
2018-02-27T00:48:36.747Z,67.35
2018-02-27T00:49:42.917Z,67.24
2018-02-27T00:50:49.015Z,67.17
2018-02-27T00:51:55.123Z,67.23
2018-02-27T00:53:01.269Z,67.88
2018-02-27T00:54:07.452Z,67.93
2018-02-27T00:55:14.550Z,67.95
2018-02-27T00:56:20.745Z,68.10
2018-02-27T00:57:26.954Z,68.29
2018-02-27T00:58:33.113Z,68.77
2018-02-27T00:59:39.248Z,68.81
2018-02-27T01:00:45.409Z,69.09
2018-02-27T01:01:51.228Z,68.91
2018-02-27T01:03:03.590Z,69.04
2018-02-27T01:04:10.215Z,68.98
2018-02-27T01:05:16.333Z,68.65
2018-02-27T01:06:22.495Z,68.33
2018-02-27T01:07:28.350Z,68.05
2018-02-27T01:08:34.445Z,68.26
2018-02-27T01:09:40.303Z,68.82
2018-02-27T01:10:46.458Z,69.19
2018-02-27T01:11:52.573Z,69.30
2018-02-27T01:12:58.719Z,69.15
2018-02-27T01:14:04.879Z,68.77
2018-02-27T01:15:11.031Z,68.50
2018-02-27T01:16:17.226Z,68.32
2018-02-27T01:17:23.386Z,68.50
2018-02-27T01:18:29.550Z,68.72
2018-02-27T01:19:35.902Z,68.72
2018-02-27T01:20:42.036Z,68.64
2018-02-27T01:21:48.164Z,68.54
2018-02-27T01:22:54.332Z,68.34
2018-02-27T01:24:00.451Z,68.28
2018-02-27T01:25:06.640Z,68.66
2018-02-27T01:26:12.861Z,68.57
2018-02-27T01:27:19.062Z,68.68
2018-02-27T01:28:25.193Z,68.81
2018-02-27T01:29:31.294Z,68.90
2018-02-27T01:30:37.434Z,69.23
2018-02-27T01:31:43.549Z,69.33
2018-02-27T01:32:49.694Z,69.33
2018-02-27T01:33:55.888Z,69.28
2018-02-27T01:35:02.011Z,69.51
2018-02-27T01:36:08.160Z,69.26
2018-02-27T01:37:14.306Z,69.27
2018-02-27T01:38:20.451Z,69.45
2018-02-27T01:39:26.862Z,69.25
2018-02-27T01:40:32.696Z,68.96
2018-02-27T01:41:38.805Z,69.44
2018-02-27T01:42:44.943Z,69.74
2018-02-27T01:43:51.047Z,69.75
2018-02-27T01:45:00.316Z,69.68
2018-02-27T01:46:06.509Z,70.30
2018-02-27T01:47:12.628Z,70.25
2018-02-27T01:48:18.799Z,70.40
2018-02-27T01:49:24.948Z,70.48
2018-02-27T01:50:31.664Z,70.74
2018-02-27T01:51:37.528Z,70.65
2018-02-27T01:52:43.379Z,70.63
2018-02-27T01:53:49.566Z,70.41
2018-02-27T01:54:55.687Z,70.20
2018-02-27T01:56:01.884Z,70.23
2018-02-27T01:57:09.007Z,70.42
2018-02-27T01:58:15.194Z,70.29
2018-02-27T01:59:21.308Z,70.27
2018-02-27T02:00:27.474Z,70.46
2018-02-27T02:01:32.642Z,70.89
2018-02-27T02:02:38.548Z,70.88
2018-02-27T02:03:44.681Z,71.12
2018-02-27T02:04:50.814Z,70.92
2018-02-27T02:05:56.903Z,70.80
2018-02-27T02:07:03.063Z,70.71
2018-02-27T02:08:08.904Z,70.52
2018-02-27T02:09:15.014Z,70.11
2018-02-27T02:10:20.804Z,70.00
2018-02-27T02:11:26.661Z,70.19
2018-02-27T02:12:32.824Z,70.52
2018-02-27T02:13:38.932Z,70.44
2018-02-27T02:14:45.107Z,70.17
2018-02-27T02:15:51.212Z,69.82
2018-02-27T02:16:57.399Z,69.74
2018-02-27T02:18:03.587Z,69.77
2018-02-27T02:19:09.768Z,70.00
2018-02-27T02:20:15.599Z,69.88
2018-02-27T02:21:21.754Z,69.88
2018-02-27T02:22:27.920Z,69.61
2018-02-27T02:23:34.032Z,69.76
2018-02-27T02:24:40.226Z,69.45
2018-02-27T02:25:46.393Z,69.02
2018-02-27T02:26:52.659Z,69.45
2018-02-27T02:27:58.826Z,69.64
2018-02-27T02:29:04.990Z,69.62
2018-02-27T02:30:11.137Z,70.08
2018-02-27T02:31:17.357Z,70.03
2018-02-27T02:32:23.484Z,69.75
2018-02-27T02:33:29.614Z,70.18
2018-02-27T02:34:35.516Z,69.92
2018-02-27T02:35:41.730Z,69.86
2018-02-27T02:36:47.863Z,69.64
2018-02-27T02:37:53.963Z,69.54
2018-02-27T02:39:00.122Z,69.66
2018-02-27T02:40:06.013Z,69.82
2018-02-27T02:41:12.152Z,70.01
2018-02-27T02:42:24.353Z,70.00
2018-02-27T02:43:30.525Z,70.05
2018-02-27T02:44:36.714Z,70.12
2018-02-27T02:45:42.876Z,70.17
2018-02-27T02:46:49.015Z,70.24
2018-02-27T02:47:54.936Z,70.58
2018-02-27T02:49:01.097Z,70.88
2018-02-27T02:50:07.336Z,70.76
2018-02-27T02:51:13.456Z,70.59
2018-02-27T02:52:19.598Z,70.33
2018-02-27T02:53:25.730Z,70.80
2018-02-27T02:54:31.913Z,70.83
2018-02-27T02:55:39.091Z,70.41
2018-02-27T02:56:50.194Z,70.35
2018-02-27T02:57:56.418Z,70.37
2018-02-27T02:59:02.584Z,70.48
2018-02-27T03:00:09.689Z,70.83
2018-02-27T03:01:15.823Z,70.62
2018-02-27T03:02:22.000Z,70.29
2018-02-27T03:03:28.116Z,70.23
2018-02-27T03:04:34.287Z,70.25
2018-02-27T03:05:40.451Z,70.39
2018-02-27T03:06:46.667Z,70.62
2018-02-27T03:07:52.850Z,70.89
2018-02-27T03:08:59.026Z,70.93
2018-02-27T03:10:05.171Z,70.87
2018-02-27T03:11:11.069Z,70.67
2018-02-27T03:12:17.208Z,70.36
2018-02-27T03:13:23.110Z,70.39
2018-02-27T03:14:29.278Z,70.30
2018-02-27T03:15:35.413Z,70.41
2018-02-27T03:16:41.572Z,70.39
2018-02-27T03:17:47.825Z,70.37
2018-02-27T03:18:54.016Z,70.18
2018-02-27T03:20:00.196Z,70.23
2018-02-27T03:21:06.310Z,69.99
2018-02-27T03:22:12.424Z,69.91
2018-02-27T03:23:18.569Z,69.99
2018-02-27T03:24:24.679Z,69.68
2018-02-27T03:25:32.854Z,69.98
2018-02-27T03:26:39.058Z,70.38
2018-02-27T03:27:45.275Z,70.31
2018-02-27T03:28:51.464Z,70.29
2018-02-27T03:29:57.629Z,70.99
2018-02-27T03:31:05.710Z,71.21
2018-02-27T03:32:11.864Z,70.80
2018-02-27T03:33:17.762Z,70.54
2018-02-27T03:34:23.609Z,70.43
2018-02-27T03:35:29.763Z,70.23
2018-02-27T03:36:35.902Z,70.30
2018-02-27T03:37:42.046Z,70.54
2018-02-27T03:38:48.180Z,70.57
2018-02-27T03:39:54.332Z,70.70
2018-02-27T03:41:00.527Z,70.52
2018-02-27T03:42:06.660Z,70.48
2018-02-27T03:43:12.523Z,70.68
2018-02-27T03:44:18.696Z,70.58
2018-02-27T03:45:24.641Z,70.52
2018-02-27T03:46:30.763Z,70.21
2018-02-27T03:47:36.880Z,70.51
2018-02-27T03:48:43.028Z,70.51
2018-02-27T03:49:49.183Z,70.64
2018-02-27T03:50:55.308Z,70.74
2018-02-27T03:52:01.466Z,70.95
2018-02-27T03:53:07.440Z,71.28
2018-02-27T03:54:13.606Z,71.52
2018-02-27T03:55:19.793Z,71.42
2018-02-27T03:56:25.957Z,71.35
2018-02-27T03:57:32.135Z,71.19
2018-02-27T03:58:38.347Z,71.52
2018-02-27T03:59:44.743Z,71.40
2018-02-27T04:00:51.783Z,71.09
2018-02-27T04:01:57.990Z,71.62
2018-02-27T04:03:04.351Z,71.67
2018-02-27T04:04:15.774Z,71.44
2018-02-27T04:05:21.886Z,71.67
2018-02-27T04:06:28.086Z,71.49
2018-02-27T04:07:34.263Z,71.21
2018-02-27T04:08:40.138Z,71.32
2018-02-27T04:09:46.283Z,71.42
2018-02-27T04:10:54.620Z,71.34
2018-02-27T04:12:00.844Z,71.07
2018-02-27T04:13:07.016Z,71.33
2018-02-27T04:14:13.152Z,71.60
2018-02-27T04:15:19.435Z,71.48
2018-02-27T04:16:25.575Z,70.85
2018-02-27T04:17:31.735Z,70.75
2018-02-27T04:18:37.891Z,70.70
2018-02-27T04:19:44.047Z,70.43
2018-02-27T04:20:50.266Z,70.45
2018-02-27T04:21:56.395Z,70.26
2018-02-27T04:23:03.801Z,70.06
2018-02-27T04:24:09.977Z,69.77
2018-02-27T04:25:16.173Z,69.76
2018-02-27T04:26:22.645Z,69.93
2018-02-27T04:27:28.950Z,69.74
2018-02-27T04:28:35.162Z,69.81
2018-02-27T04:29:41.306Z,70.11
2018-02-27T04:30:47.496Z,70.51
2018-02-27T04:31:53.659Z,70.55
2018-02-27T04:32:59.856Z,70.73
2018-02-27T04:34:06.069Z,70.71
2018-02-27T04:35:22.335Z,71.08
2018-02-27T04:36:28.558Z,71.07
2018-02-27T04:37:34.924Z,71.44
2018-02-27T04:38:41.195Z,71.23
2018-02-27T04:39:48.018Z,70.96
2018-02-27T04:40:54.193Z,71.03
2018-02-27T04:42:00.392Z,71.15
2018-02-27T04:43:06.578Z,71.49
2018-02-27T04:44:12.804Z,71.23
2018-02-27T04:45:18.941Z,71.10
2018-02-27T04:46:28.183Z,71.24
2018-02-27T04:47:34.393Z,71.36
2018-02-27T04:48:40.687Z,71.48
2018-02-27T04:49:47.019Z,71.71
2018-02-27T04:50:53.138Z,71.57
2018-02-27T04:51:59.376Z,71.81
2018-02-27T04:53:05.520Z,71.70
2018-02-27T04:54:11.660Z,71.51
2018-02-27T04:55:22.895Z,71.62
2018-02-27T04:56:29.027Z,71.62
2018-02-27T04:57:35.269Z,72.20
2018-02-27T04:58:41.474Z,72.18
2018-02-27T04:59:47.690Z,71.77
2018-02-27T05:00:53.898Z,71.73
2018-02-27T05:02:00.077Z,71.75
2018-02-27T05:03:06.282Z,71.74
2018-02-27T05:04:12.599Z,71.90
2018-02-27T05:05:18.782Z,71.96
2018-02-27T05:06:24.937Z,72.17
2018-02-27T05:07:31.087Z,72.09
2018-02-27T05:08:37.232Z,72.16
2018-02-27T05:09:43.116Z,72.36
2018-02-27T05:10:49.644Z,72.06
2018-02-27T05:11:55.776Z,71.53
2018-02-27T05:13:01.920Z,71.58
2018-02-27T05:14:08.158Z,71.31
2018-02-27T05:15:14.328Z,71.39
2018-02-27T05:16:20.545Z,71.38
2018-02-27T05:17:26.666Z,71.63
2018-02-27T05:18:32.782Z,71.50
2018-02-27T05:19:38.932Z,71.44
2018-02-27T05:20:45.123Z,71.66
2018-02-27T05:21:51.309Z,71.76
2018-02-27T05:22:57.522Z,71.79
2018-02-27T05:24:03.748Z,71.58
2018-02-27T05:25:09.883Z,71.32
2018-02-27T05:26:16.023Z,71.36
2018-02-27T05:27:22.263Z,71.39
2018-02-27T05:28:32.320Z,71.55
2018-02-27T05:29:38.556Z,71.64
2018-02-27T05:30:44.760Z,71.69
2018-02-27T05:31:52.963Z,71.98
2018-02-27T05:32:59.148Z,72.12
2018-02-27T05:34:05.306Z,72.52
2018-02-27T05:35:11.470Z,72.30
2018-02-27T05:36:17.624Z,72.22
2018-02-27T05:37:23.811Z,72.35
2018-02-27T05:38:30.002Z,72.40
2018-02-27T05:39:36.149Z,72.54
2018-02-27T05:40:42.289Z,72.41
2018-02-27T05:41:48.855Z,72.20
2018-02-27T05:42:55.236Z,72.06
2018-02-27T05:44:01.395Z,72.41
2018-02-27T05:45:07.584Z,72.56
2018-02-27T05:46:13.745Z,72.92
2018-02-27T05:47:19.953Z,72.91
2018-02-27T05:48:26.089Z,72.97
2018-02-27T05:49:32.216Z,73.20
2018-02-27T05:50:43.695Z,72.90
2018-02-27T05:51:49.943Z,72.34
2018-02-27T05:52:56.105Z,72.52
2018-02-27T05:54:02.524Z,72.62
2018-02-27T05:55:08.677Z,72.77
2018-02-27T05:56:14.991Z,72.56
2018-02-27T05:57:21.149Z,72.54
2018-02-27T05:58:27.334Z,72.67
2018-02-27T05:59:33.535Z,72.71
2018-02-27T06:00:39.669Z,73.26
2018-02-27T06:01:45.714Z,73.70
2018-02-27T06:02:51.836Z,73.31
2018-02-27T06:03:57.952Z,73.13
2018-02-27T06:05:04.075Z,73.04
2018-02-27T06:06:10.293Z,72.88
2018-02-27T06:07:16.519Z,72.26
2018-02-27T06:08:22.703Z,72.50
2018-02-27T06:09:28.897Z,72.85
2018-02-27T06:10:35.052Z,73.03
2018-02-27T06:11:41.233Z,72.44
2018-02-27T06:12:47.436Z,72.29
2018-02-27T06:13:53.732Z,72.27
2018-02-27T06:14:59.859Z,71.97
2018-02-27T06:16:06.066Z,71.96
2018-02-27T06:17:12.280Z,71.75
2018-02-27T06:18:18.427Z,71.70
2018-02-27T06:19:24.594Z,72.22
2018-02-27T06:20:30.749Z,71.93
2018-02-27T06:21:37.336Z,71.99
2018-02-27T06:22:43.507Z,72.17
2018-02-27T06:23:49.692Z,72.10
2018-02-27T06:24:55.924Z,71.96
2018-02-27T06:26:02.035Z,72.12
2018-02-27T06:27:08.513Z,72.34
2018-02-27T06:28:14.752Z,72.27
2018-02-27T06:29:20.986Z,72.40
2018-02-27T06:30:27.179Z,72.84
2018-02-27T06:31:33.347Z,72.78
2018-02-27T06:32:39.511Z,72.41
2018-02-27T06:33:45.720Z,71.60
2018-02-27T06:35:00.119Z,71.18
2018-02-27T06:36:06.254Z,70.92
2018-02-27T06:37:12.208Z,70.76
2018-02-27T06:38:18.359Z,70.61
2018-02-27T06:39:24.521Z,71.01
2018-02-27T06:40:30.665Z,71.05
2018-02-27T06:41:36.839Z,71.23
2018-02-27T06:42:43.018Z,71.11
2018-02-27T06:43:49.135Z,71.07
2018-02-27T06:44:55.113Z,70.89
2018-02-27T06:46:01.441Z,70.54
2018-02-27T06:47:07.652Z,70.57
2018-02-27T06:48:14.203Z,70.25
2018-02-27T06:49:20.339Z,70.28
2018-02-27T06:50:26.564Z,70.60
2018-02-27T06:51:32.773Z,70.61
2018-02-27T06:52:38.976Z,71.30
2018-02-27T06:53:44.963Z,71.64
2018-02-27T06:54:51.190Z,71.13
2018-02-27T06:55:57.399Z,70.86
2018-02-27T06:57:05.705Z,70.67
2018-02-27T06:58:13.833Z,70.20
2018-02-27T06:59:21.829Z,69.29
2018-02-27T07:00:28.802Z,68.81
2018-02-27T07:01:36.093Z,68.70
2018-02-27T07:02:43.916Z,68.62
2018-02-27T07:03:51.352Z,68.89
2018-02-27T07:04:59.923Z,68.54
2018-02-27T07:06:08.022Z,68.29
2018-02-27T07:07:15.394Z,68.59
2018-02-27T07:08:22.381Z,68.81
2018-02-27T07:09:29.517Z,69.05
2018-02-27T07:10:36.823Z,69.34
2018-02-27T07:11:44.973Z,69.02
2018-02-27T07:12:52.401Z,69.16
2018-02-27T07:13:59.403Z,69.34
2018-02-27T07:15:07.101Z,69.42
2018-02-27T07:16:14.456Z,69.42
2018-02-27T07:17:21.544Z,69.14
2018-02-27T07:18:29.783Z,68.83
2018-02-27T07:19:38.417Z,68.64
2018-02-27T07:20:45.699Z,69.35
2018-02-27T07:21:53.123Z,69.39
2018-02-27T07:23:01.683Z,69.72
2018-02-27T07:24:09.047Z,68.97
2018-02-27T07:25:16.047Z,68.33
2018-02-27T07:26:23.095Z,68.18
2018-02-27T07:27:30.113Z,68.42
2018-02-27T07:28:39.084Z,68.91
2018-02-27T07:29:47.266Z,68.38
2018-02-27T07:30:55.770Z,68.00
2018-02-27T07:32:03.776Z,67.55
2018-02-27T07:33:15.614Z,67.20
2018-02-27T07:34:23.610Z,66.59
2018-02-27T07:35:30.675Z,66.47
2018-02-27T07:36:38.433Z,66.29
2018-02-27T07:37:45.320Z,65.88
2018-02-27T07:38:52.173Z,65.79
2018-02-27T07:39:59.817Z,65.65
2018-02-27T07:41:07.962Z,65.49
2018-02-27T07:42:15.124Z,65.63
2018-02-27T07:43:22.662Z,65.58
2018-02-27T07:44:29.618Z,65.62
2018-02-27T07:45:38.050Z,65.61
2018-02-27T07:46:46.069Z,65.89
2018-02-27T07:47:52.843Z,65.92
2018-02-27T07:48:59.818Z,66.09
2018-02-27T07:50:06.736Z,66.12
2018-02-27T07:51:13.620Z,65.81
2018-02-27T07:52:22.342Z,65.79
2018-02-27T07:53:29.791Z,65.64
2018-02-27T07:54:36.849Z,65.45
2018-02-27T07:55:44.232Z,65.49
2018-02-27T07:56:51.352Z,64.95
2018-02-27T07:57:58.633Z,64.50
2018-02-27T07:59:05.979Z,64.50
2018-02-27T08:00:13.311Z,64.98
2018-02-27T08:01:20.845Z,64.83
2018-02-27T08:02:27.863Z,64.92
2018-02-27T08:03:35.212Z,65.17
2018-02-27T08:04:42.460Z,65.10
2018-02-27T08:05:53.192Z,65.22
2018-02-27T08:07:00.298Z,65.09
2018-02-27T08:08:08.824Z,64.88
2018-02-27T08:09:16.899Z,64.32
2018-02-27T08:10:24.692Z,63.03
2018-02-27T08:11:31.854Z,62.45
2018-02-27T08:12:39.263Z,62.95
2018-02-27T08:18:43.659Z,64.67
2018-02-27T08:19:49.904Z,64.31
2018-02-27T08:20:56.375Z,63.78
2018-02-27T08:22:03.436Z,63.69
2018-02-27T08:23:10.615Z,62.31
2018-02-27T08:24:17.627Z,62.06
2018-02-27T08:35:21.923Z,60.72
2018-02-27T08:36:28.171Z,60.98
2018-02-27T08:37:34.383Z,61.60
2018-02-27T08:39:02.655Z,61.44
2018-02-27T08:40:10.165Z,60.47
2018-02-27T08:41:18.297Z,60.68
2018-02-27T08:42:25.699Z,60.75
2018-02-27T08:43:33.528Z,60.70
2018-02-27T08:44:41.523Z,59.90
2018-02-27T08:45:49.983Z,59.82
2018-02-27T08:46:57.484Z,59.28
2018-02-27T08:48:05.264Z,59.43
2018-02-27T08:49:13.635Z,59.49
2018-02-27T08:50:22.090Z,59.71
2018-02-27T08:51:30.900Z,59.06
2018-02-27T08:52:38.296Z,59.34
2018-02-27T08:53:45.790Z,59.06
2018-02-27T08:54:53.453Z,58.46
2018-02-27T08:57:34.906Z,59.37
2018-02-27T08:58:41.267Z,59.67
2018-02-27T08:59:47.612Z,59.62
2018-02-27T09:00:53.939Z,58.51
2018-02-27T09:02:00.307Z,58.54
2018-02-27T09:03:06.802Z,58.62
2018-02-27T09:04:13.120Z,59.16
2018-02-27T09:08:31.827Z,57.71
2018-02-27T09:09:37.741Z,57.81
2018-02-27T09:10:43.962Z,58.80
2018-02-27T09:11:50.174Z,58.90
2018-02-27T09:13:03.880Z,58.33
2018-02-27T09:17:26.827Z,56.85
2018-02-27T09:18:32.968Z,56.78
2018-02-27T09:19:39.093Z,56.99
2018-02-27T09:20:45.265Z,57.40
2018-02-27T09:21:51.399Z,57.06
2018-02-27T09:22:57.601Z,56.27
2018-02-27T09:24:03.780Z,55.53
2018-02-27T09:25:10.897Z,55.09
2018-02-27T09:26:17.091Z,55.81
2018-02-27T09:27:23.316Z,56.01
2018-02-27T09:28:29.503Z,56.76
2018-02-27T09:29:35.730Z,56.65
2018-02-27T09:30:41.917Z,57.07
2018-02-27T09:31:48.115Z,56.45
2018-02-27T09:32:54.315Z,56.27
2018-02-27T09:34:00.468Z,56.37
2018-02-27T09:35:06.706Z,56.12
2018-02-27T09:36:12.880Z,56.14
2018-02-27T09:37:18.781Z,56.08
2018-02-27T09:38:24.965Z,56.31
2018-02-27T09:39:31.184Z,56.40
2018-02-27T09:40:37.399Z,55.90
2018-02-27T09:41:43.837Z,55.20
2018-02-27T09:42:50.087Z,55.50
2018-02-27T09:43:56.275Z,55.40
2018-02-27T09:45:02.418Z,55.80
2018-02-27T09:46:08.849Z,56.42
2018-02-27T09:47:16.198Z,55.90
2018-02-27T09:48:23.490Z,55.29
2018-02-27T09:49:30.536Z,55.44
2018-02-27T09:50:37.398Z,55.44
2018-02-27T09:51:44.298Z,54.80
2018-02-27T09:52:51.384Z,54.75
2018-02-27T09:53:58.312Z,54.64
2018-02-27T09:55:05.114Z,54.42
2018-02-27T09:56:12.157Z,54.31
2018-02-27T09:57:19.160Z,54.29
2018-02-27T09:58:26.357Z,54.29
2018-02-27T09:59:33.690Z,53.41
2018-02-27T10:00:41.221Z,53.44
2018-02-27T10:01:48.402Z,53.69
2018-02-27T10:02:55.192Z,53.99
2018-02-27T10:04:01.958Z,54.32
2018-02-27T10:05:13.323Z,53.83
2018-02-27T10:06:19.480Z,52.88
2018-02-27T10:07:25.726Z,52.90
2018-02-27T10:08:31.889Z,52.70
2018-02-27T10:09:38.044Z,52.59
2018-02-27T10:10:44.191Z,52.51
2018-02-27T10:11:50.361Z,52.97
2018-02-27T10:12:56.576Z,53.43
2018-02-27T10:14:04.627Z,53.28
2018-02-27T10:15:11.125Z,53.06
2018-02-27T10:16:17.270Z,53.22
2018-02-27T10:17:23.435Z,53.37
2018-02-27T10:18:29.613Z,53.31
2018-02-27T10:19:35.763Z,53.71
2018-02-27T10:20:41.951Z,53.98
2018-02-27T10:21:48.135Z,54.06
2018-02-27T10:22:54.328Z,54.00
2018-02-27T10:24:00.458Z,53.64
2018-02-27T10:25:06.845Z,52.47
2018-02-27T10:26:13.047Z,51.72
2018-02-27T10:27:19.186Z,51.99
2018-02-27T10:28:25.372Z,52.36
2018-02-27T10:29:31.553Z,52.15
2018-02-27T10:30:37.796Z,51.88
2018-02-27T10:31:44.220Z,51.82
2018-02-27T10:32:50.419Z,52.17
2018-02-27T10:33:56.562Z,51.59
2018-02-27T10:35:02.699Z,52.17
2018-02-27T10:36:08.844Z,52.45
2018-02-27T10:37:14.993Z,52.54
2018-02-27T10:38:21.209Z,52.17
2018-02-27T10:39:27.435Z,51.43
2018-02-27T10:40:33.771Z,50.81
2018-02-27T10:41:39.984Z,51.44
2018-02-27T10:42:46.134Z,51.54
2018-02-27T10:43:52.785Z,51.52
2018-02-27T10:44:58.948Z,52.05
2018-02-27T10:46:11.032Z,51.91
2018-02-27T10:47:16.902Z,52.28
2018-02-27T10:48:23.052Z,52.16
2018-02-27T10:49:29.180Z,52.27
2018-02-27T10:50:35.308Z,51.45
2018-02-27T10:51:41.448Z,51.37
2018-02-27T10:52:47.701Z,51.02
2018-02-27T10:53:53.841Z,50.20
2018-02-27T10:55:00.001Z,50.39
2018-02-27T10:56:06.233Z,50.95
2018-02-27T10:57:12.398Z,50.73
2018-02-27T10:58:18.624Z,50.80
2018-02-27T10:59:24.829Z,50.35
2018-02-27T11:00:36.525Z,50.39
2018-02-27T11:01:42.509Z,50.51
2018-02-27T11:02:48.357Z,49.17
2018-02-27T11:03:54.540Z,49.12
2018-02-27T11:05:00.702Z,49.04
2018-02-27T11:06:07.058Z,49.61
2018-02-27T11:07:13.335Z,49.37
2018-02-27T11:08:19.503Z,49.20
2018-02-27T11:09:25.759Z,48.95
2018-02-27T11:10:31.912Z,48.69
2018-02-27T11:11:38.026Z,48.41
2018-02-27T11:12:44.252Z,48.81
2018-02-27T11:13:50.384Z,48.17
2018-02-27T11:14:56.549Z,48.54
2018-02-27T11:16:02.758Z,48.47
2018-02-27T11:17:08.865Z,47.77
2018-02-27T11:18:14.982Z,46.82
2018-02-27T11:19:21.147Z,47.14
2018-02-27T11:20:27.338Z,47.10
2018-02-27T11:21:33.560Z,46.85
2018-02-27T11:22:39.864Z,47.19
2018-02-27T11:23:46.022Z,46.90
2018-02-27T11:24:52.199Z,46.41
2018-02-27T11:25:58.325Z,45.87
2018-02-27T11:27:04.531Z,45.83
2018-02-27T11:28:10.663Z,46.09
2018-02-27T11:29:16.965Z,46.78
2018-02-27T11:30:23.189Z,45.85
2018-02-27T11:31:29.322Z,45.58
2018-02-27T11:32:35.520Z,46.19
2018-02-27T11:33:45.609Z,46.20
2018-02-27T11:34:51.731Z,46.28
2018-02-27T11:35:57.892Z,46.46
2018-02-27T11:37:04.016Z,46.88
2018-02-27T11:38:10.173Z,46.84
2018-02-27T11:39:16.300Z,46.93
2018-02-27T11:40:22.429Z,46.05
2018-02-27T11:41:28.547Z,45.60
2018-02-27T11:42:34.756Z,45.75
2018-02-27T11:43:40.851Z,45.52
2018-02-27T11:44:46.958Z,45.96
2018-02-27T11:45:53.088Z,45.89
2018-02-27T11:46:59.244Z,45.75
2018-02-27T11:48:05.417Z,46.34
2018-02-27T11:49:11.610Z,46.60
2018-02-27T11:50:17.478Z,46.50
2018-02-27T11:51:23.578Z,46.45
2018-02-27T11:52:29.724Z,46.22
2018-02-27T11:53:35.866Z,45.71
2018-02-27T11:54:41.999Z,45.38
2018-02-27T11:55:48.145Z,44.98
2018-02-27T11:56:54.284Z,44.87
2018-02-27T11:58:00.396Z,43.98
2018-02-27T11:59:06.525Z,43.55
2018-02-27T12:00:12.681Z,43.67
2018-02-27T12:01:18.822Z,44.26
2018-02-27T12:02:27.966Z,43.87
2018-02-27T12:03:34.040Z,43.48
2018-02-27T12:04:40.167Z,43.46
2018-02-27T12:05:46.322Z,43.79
2018-02-27T12:06:52.484Z,44.05
2018-02-27T12:07:58.596Z,43.67
2018-02-27T12:09:03.875Z,43.88
2018-02-27T12:10:09.402Z,43.69
2018-02-27T12:11:15.593Z,42.62
2018-02-27T12:12:21.724Z,41.95
2018-02-27T12:13:27.862Z,42.55
2018-02-27T12:14:33.998Z,42.51
2018-02-27T12:15:40.152Z,42.64
2018-02-27T12:16:46.301Z,42.61
2018-02-27T12:17:52.440Z,43.08
2018-02-27T12:18:58.916Z,43.48
2018-02-27T12:20:04.703Z,43.66
2018-02-27T12:21:10.812Z,43.27
2018-02-27T12:22:16.925Z,42.82
2018-02-27T12:23:23.219Z,43.10
2018-02-27T12:24:29.438Z,43.50
2018-02-27T12:27:08.811Z,43.50
2018-02-27T12:28:15.012Z,43.68
2018-02-27T12:32:42.893Z,43.84
2018-02-27T12:33:49.032Z,43.94
2018-02-27T12:34:55.164Z,43.86
2018-02-27T12:36:01.885Z,43.61
2018-02-27T12:37:08.048Z,43.70
2018-02-27T12:38:14.215Z,43.54
2018-02-27T12:39:20.383Z,43.72
2018-02-27T12:40:26.533Z,43.60
2018-02-27T12:41:32.762Z,43.59
2018-02-27T12:42:39.104Z,43.62
2018-02-27T12:43:45.221Z,43.27
2018-02-27T12:44:51.368Z,43.34
2018-02-27T12:45:57.489Z,42.63
2018-02-27T12:47:03.623Z,42.48
2018-02-27T12:48:09.881Z,42.87
2018-02-27T12:49:16.205Z,43.36
2018-02-27T12:50:22.394Z,43.68
2018-02-27T12:51:28.225Z,43.35
2018-02-27T12:52:34.323Z,43.45
2018-02-27T12:53:40.506Z,43.43
2018-02-27T12:54:46.719Z,43.28
2018-02-27T12:55:52.874Z,42.91
2018-02-27T12:56:59.003Z,43.20
2018-02-27T12:58:05.348Z,42.88
2018-02-27T12:59:11.529Z,42.56
2018-02-27T13:00:17.720Z,42.57
2018-02-27T13:01:23.843Z,42.29
2018-02-27T13:02:30.004Z,42.62
2018-02-27T13:03:36.295Z,43.15
2018-02-27T13:04:42.461Z,43.17
2018-02-27T13:05:48.582Z,43.28
2018-02-27T13:06:54.756Z,43.29
2018-02-27T13:08:00.918Z,43.10
2018-02-27T13:09:07.053Z,42.87
2018-02-27T13:10:13.169Z,42.91
2018-02-27T13:11:19.241Z,43.00
2018-02-27T13:12:25.404Z,43.01
2018-02-27T13:13:31.558Z,43.11
2018-02-27T13:14:38.587Z,43.39
2018-02-27T13:15:44.770Z,43.37
2018-02-27T13:16:51.002Z,43.05
2018-02-27T13:17:57.134Z,43.23
2018-02-27T13:19:03.324Z,43.11
2018-02-27T13:20:09.489Z,43.30
2018-02-27T13:21:15.692Z,42.46
2018-02-27T13:22:21.807Z,42.76
2018-02-27T13:23:27.950Z,42.80
2018-02-27T13:24:34.268Z,43.26
2018-02-27T13:25:40.498Z,43.29
2018-02-27T13:26:46.684Z,43.04
2018-02-27T13:27:52.905Z,43.22
2018-02-27T13:29:03.143Z,43.31
2018-02-27T13:30:09.302Z,43.21
2018-02-27T13:31:16.466Z,42.84
2018-02-27T13:32:22.618Z,42.08
2018-02-27T13:33:28.767Z,42.32
2018-02-27T13:34:34.891Z,42.80
2018-02-27T13:35:40.658Z,42.36
2018-02-27T13:36:46.776Z,42.50
2018-02-27T13:37:52.778Z,42.55
2018-02-27T13:38:59.114Z,42.35
2018-02-27T13:40:05.295Z,41.84
2018-02-27T13:41:11.637Z,42.59
2018-02-27T13:42:17.882Z,42.83
2018-02-27T13:43:24.160Z,42.67
2018-02-27T13:44:30.331Z,42.21
2018-02-27T13:45:36.535Z,42.43
2018-02-27T13:46:42.658Z,41.90
2018-02-27T13:47:48.923Z,41.81
2018-02-27T13:48:55.174Z,42.15
2018-02-27T13:50:01.390Z,41.98
2018-02-27T13:51:07.842Z,42.10
2018-02-27T13:52:14.109Z,42.29
2018-02-27T13:53:20.462Z,41.57
2018-02-27T13:54:26.564Z,41.54
2018-02-27T13:55:32.712Z,41.44
2018-02-27T13:56:39.118Z,41.43
2018-02-27T13:57:45.336Z,42.00
2018-02-27T13:58:51.495Z,41.89
2018-02-27T13:59:57.661Z,42.04
2018-02-27T14:01:03.448Z,42.42
2018-02-27T14:02:10.572Z,42.17
2018-02-27T14:03:16.759Z,42.31
2018-02-27T14:04:22.899Z,42.19
2018-02-27T14:05:29.304Z,42.44
2018-02-27T14:06:36.256Z,42.49
2018-02-27T14:07:45.813Z,42.30
2018-02-27T14:08:52.262Z,42.74
2018-02-27T14:09:58.416Z,42.28
2018-02-27T14:11:04.563Z,41.97
2018-02-27T14:12:10.659Z,42.40
2018-02-27T14:13:16.762Z,42.27
2018-02-27T14:14:23.158Z,42.38
2018-02-27T14:15:29.284Z,42.37
2018-02-27T14:16:35.445Z,42.38
2018-02-27T14:17:41.629Z,42.33
2018-02-27T14:18:48.182Z,42.44
2018-02-27T14:19:57.256Z,42.15
2018-02-27T14:21:03.493Z,42.02
2018-02-27T14:22:09.388Z,42.16
2018-02-27T14:23:15.524Z,42.25
2018-02-27T14:24:21.633Z,42.41
2018-02-27T14:25:27.797Z,42.49
2018-02-27T14:26:33.980Z,42.55
2018-02-27T14:27:40.162Z,42.55
2018-02-27T14:28:46.264Z,42.40
2018-02-27T14:29:52.419Z,42.60
2018-02-27T14:30:57.908Z,42.87
2018-02-27T14:32:06.999Z,42.72
2018-02-27T14:33:13.136Z,42.59
2018-02-27T14:34:18.960Z,42.79
2018-02-27T14:35:25.070Z,42.89
2018-02-27T14:36:31.273Z,42.79
2018-02-27T14:37:37.171Z,43.24
2018-02-27T14:38:43.945Z,43.16
2018-02-27T14:39:50.131Z,43.24
2018-02-27T14:40:56.436Z,43.24
2018-02-27T14:42:02.597Z,43.00
2018-02-27T14:43:08.700Z,42.99
2018-02-27T14:44:14.893Z,43.00